McFarland, California
Current Conditions -  °F | °C
As of 2:54 AM on Wednesday 26 Nov 2014 (Local Time) from KBFL Reporting Station
Haze Haze  
Wind Chill: 47°   Ceiling: Unl
Heat Index: 47°   Visibility: 5mi
Dew Point: 38°   Wind: 0mph
Humidity: 71%   Direction: NA
Pressure: 30.34"   Gusts: NA
Location:  35.68°N, 119.22°W
Report Text: KBFL 261054Z AUTO 00000KT 5SM HZ CLR 08/03 A3034 RMK AO2 SLP271 T00830033 $
Loading
Personal Weather Stations






























Interactive Weather Map New forecast layout! Learn more

10-Day Weather Forecast

Advertisements
Track Severe Weather on mobile